Time;durP1;ratioP1;P1;durP2;ratioP2;P2;SDS_P1;SDS_P2;PMS_P1;PMS_P2;Temp;Humidity;BMP_temperature;BMP_pressure;BME280_temperature;BME280_humidity;BME280_pressure;Samples;Min_cycle;Max_cycle;Signal;HPM_P1;HPM_P2
2021/08/01 00:00:06;;;;;;;;;0.00;0.00;;;;;25.49;53.44;97840.59;5005935;27;101981;-93
2021/08/01 00:02:33;;;;;;;;;1.00;1.00;;;;;25.48;53.27;97842.59;5008127;27;108082;-93
2021/08/01 00:05:01;;;;;;;;;0.00;0.00;;;;;25.48;53.43;97837.03;5007336;27;102299;-93
2021/08/01 00:07:28;;;;;;;;;1.00;1.00;;;;;25.47;53.46;97838.16;4996380;27;101756;-93
2021/08/01 00:10:00;;;;;;;;;0.33;0.33;;;;;25.46;53.39;97844.84;5005880;27;102008;-94
2021/08/01 00:12:34;;;;;;;;;0.33;0.33;;;;;25.45;53.49;97845.97;5018550;27;107058;-94
2021/08/01 00:15:16;;;;;;;;;1.00;1.00;;;;;25.46;53.46;97847.59;5014009;27;101704;-92
2021/08/01 00:17:51;;;;;;;;;0.00;0.00;;;;;25.45;53.31;97851.50;5026311;27;101958;-93
2021/08/01 00:20:24;;;;;;;;;1.00;1.00;;;;;25.45;53.47;97854.25;5024523;27;102166;-93
2021/08/01 00:23:02;;;;;;;;;0.00;0.00;;;;;25.44;53.34;97840.75;5023983;27;102877;-93
2021/08/01 00:25:40;;;;;;;;;1.00;1.00;;;;;25.44;53.45;97846.28;5013043;27;101953;-93
2021/08/01 00:28:13;;;;;;;;;1.33;1.33;;;;;25.43;53.51;97839.94;5015460;27;101947;-93
2021/08/01 00:30:46;;;;;;;;;0.33;0.33;;;;;25.43;53.52;97839.13;5019231;27;102757;-93
2021/08/01 00:33:17;;;;;;;;;0.33;0.33;;;;;25.41;53.55;97847.72;5005993;27;102679;-93
2021/08/01 00:35:49;;;;;;;;;1.00;0.00;;;;;25.41;53.47;97844.97;5022314;27;102195;-93
2021/08/01 00:38:23;;;;;;;;;0.67;0.67;;;;;25.41;53.38;97846.91;5010865;27;102028;-93
2021/08/01 00:41:01;;;;;;;;;1.67;1.67;;;;;25.39;53.56;97838.94;5022202;27;102152;-93
2021/08/01 00:43:34;;;;;;;;;1.00;1.00;;;;;25.39;53.42;97840.88;4988761;27;102991;-91
2021/08/01 00:46:07;;;;;;;;;1.00;1.00;;;;;25.39;53.40;97844.47;5012305;27;102467;-93
2021/08/01 00:48:35;;;;;;;;;1.00;1.00;;;;;25.38;53.39;97848.38;4984677;27;101897;-93
2021/08/01 00:51:02;;;;;;;;;1.00;1.00;;;;;25.37;53.50;97849.50;5003034;27;102016;-92
2021/08/01 00:53:29;;;;;;;;;1.00;0.33;;;;;25.38;53.42;97845.59;5004555;27;103391;-93
2021/08/01 00:55:56;;;;;;;;;0.67;0.67;;;;;25.38;53.34;97842.00;4998787;27;102227;-93
2021/08/01 00:58:23;;;;;;;;;0.33;0.33;;;;;25.36;53.51;97850.63;5014340;27;101933;-93
2021/08/01 01:01:08;;;;;;;;;1.00;1.00;;;;;25.37;53.30;97845.91;5014188;27;101687;-93
2021/08/01 01:03:49;;;;;;;;;0.33;0.33;;;;;25.37;53.27;97843.13;4996255;27;108124;-93
2021/08/01 01:06:28;;;;;;;;;1.00;1.00;;;;;25.36;53.53;97842.31;4950930;27;101910;-93
2021/08/01 01:08:58;;;;;;;;;0.00;0.00;;;;;25.36;53.44;97830.44;4983794;27;104721;-93
2021/08/01 01:11:29;;;;;;;;;1.00;1.00;;;;;25.35;53.39;97831.59;4968817;27;102284;-93
2021/08/01 01:13:58;;;;;;;;;0.00;0.00;;;;;25.35;53.65;97828.81;4987931;27;103399;-93
2021/08/01 01:16:44;;;;;;;;;0.00;0.00;;;;;25.34;53.54;97825.22;4986401;27;101954;-93
2021/08/01 01:19:50;;;;;;;;;1.00;0.67;;;;;25.33;53.40;97818.88;4946019;27;102008;-93
2021/08/01 01:22:49;;;;;;;;;1.67;1.00;;;;;25.31;53.42;97815.59;4932470;27;102804;-93
2021/08/01 01:25:40;;;;;;;;;0.33;0.33;;;;;25.32;53.45;97833.84;4956469;27;108308;-93
2021/08/01 01:28:19;;;;;;;;;0.00;0.00;;;;;25.32;53.54;97833.00;5005470;27;102006;-89
2021/08/01 01:31:06;;;;;;;;;1.67;1.00;;;;;25.31;53.51;97817.53;4919917;27;102054;-93
2021/08/01 01:33:35;;;;;;;;;0.00;0.00;;;;;25.30;53.67;97822.28;4993024;27;101846;-93
2021/08/01 01:36:09;;;;;;;;;0.33;0.33;;;;;25.30;53.38;97818.69;4965419;28;103462;-92
2021/08/01 01:38:42;;;;;;;;;1.33;1.33;;;;;25.29;53.33;97828.13;4980533;27;102786;-93
2021/08/01 01:41:16;;;;;;;;;0.00;0.00;;;;;25.27;53.53;97828.41;4985083;27;101712;-91
2021/08/01 01:43:47;;;;;;;;;0.00;0.00;;;;;25.28;53.46;97826.47;4984637;27;102025;-92
2021/08/01 01:46:20;;;;;;;;;0.67;0.67;;;;;25.26;53.64;97817.69;4990615;27;103031;-93
2021/08/01 01:48:55;;;;;;;;;1.00;0.67;;;;;25.27;53.66;97813.75;4970787;28;101666;-94
2021/08/01 01:51:29;;;;;;;;;0.00;0.00;;;;;25.26;53.47;97817.69;4953702;27;101921;-93
2021/08/01 01:54:00;;;;;;;;;1.00;0.67;;;;;25.26;53.62;97818.47;4992795;27;102068;-93
2021/08/01 01:56:29;;;;;;;;;0.33;0.33;;;;;25.27;53.45;97814.59;4990485;27;104533;-93
2021/08/01 01:58:56;;;;;;;;;0.33;0.00;;;;;25.25;53.40;97808.56;5020863;27;101962;-92
2021/08/01 02:01:23;;;;;;;;;1.00;1.00;;;;;25.26;53.38;97812.16;5017079;27;104911;-93
2021/08/01 02:03:53;;;;;;;;;1.00;1.00;;;;;25.25;53.41;97807.75;5027542;27;101858;-93
2021/08/01 02:06:21;;;;;;;;;1.67;1.00;;;;;25.23;53.41;97819.13;5022979;27;103671;-92
2021/08/01 02:08:59;;;;;;;;;0.33;0.33;;;;;25.24;53.44;97819.94;5020731;27;103612;-93
2021/08/01 02:11:33;;;;;;;;;1.33;1.33;;;;;25.24;53.48;97823.53;5026217;27;102586;-93
2021/08/01 02:14:06;;;;;;;;;0.67;0.67;;;;;25.23;53.46;97821.06;5024492;27;101873;-93
2021/08/01 02:16:34;;;;;;;;;2.00;1.00;;;;;25.22;53.43;97811.94;5005343;27;103380;-93
2021/08/01 02:19:05;;;;;;;;;1.33;1.33;;;;;25.22;53.39;97814.72;5001128;27;101845;-93
2021/08/01 02:21:33;;;;;;;;;1.00;1.00;;;;;25.22;53.45;97819.41;5020253;27;102172;-93
2021/08/01 02:24:00;;;;;;;;;1.00;1.00;;;;;25.20;53.69;97824.47;4995343;27;101962;-93
2021/08/01 02:26:28;;;;;;;;;3.00;1.00;;;;;25.21;53.43;97817.81;5004451;27;103489;-93
2021/08/01 02:28:55;;;;;;;;;0.00;0.00;;;;;25.20;53.68;97818.94;4986840;28;102182;-93
2021/08/01 02:31:22;;;;;;;;;0.67;0.33;;;;;25.20;53.43;97818.94;5006640;27;101946;-93
2021/08/01 02:33:49;;;;;;;;;0.00;0.00;;;;;25.20;53.45;97818.94;4985069;27;102220;-93
2021/08/01 02:36:17;;;;;;;;;0.33;0.33;;;;;25.19;53.40;97814.53;4996747;27;103597;-92
2021/08/01 02:38:45;;;;;;;;;0.33;0.33;;;;;25.18;53.70;97802.63;4999047;27;102093;-92
2021/08/01 02:41:16;;;;;;;;;3.00;2.00;;;;;25.17;53.39;97801.00;5020091;27;101726;-93
2021/08/01 02:43:44;;;;;;;;;1.00;1.00;;;;;25.17;53.35;97791.91;4989562;27;101899;-92
2021/08/01 02:46:11;;;;;;;;;1.00;1.00;;;;;25.17;53.65;97794.66;5009931;27;107321;-93
2021/08/01 02:48:38;;;;;;;;;1.00;1.00;;;;;25.18;53.39;97790.75;4994895;27;102881;-92
2021/08/01 02:51:06;;;;;;;;;2.00;2.00;;;;;25.16;53.51;97784.72;5020840;27;101706;-93
2021/08/01 02:53:36;;;;;;;;;1.00;1.00;;;;;25.18;53.33;97790.75;5021888;27;102981;-93
2021/08/01 02:56:04;;;;;;;;;1.00;1.00;;;;;25.17;53.59;97789.13;5009589;27;103377;-93
2021/08/01 02:58:31;;;;;;;;;2.00;2.00;;;;;25.16;53.44;97787.50;5001537;27;101976;-92
2021/08/01 03:00:58;;;;;;;;;1.00;1.00;;;;;25.17;53.34;97791.91;5010460;27;102148;-93
2021/08/01 03:03:26;;;;;;;;;0.33;0.33;;;;;25.16;53.46;97784.72;5003766;27;102723;-93
2021/08/01 03:05:53;;;;;;;;;1.00;1.00;;;;;25.15;53.56;97772.03;5020403;27;103482;-92
2021/08/01 03:08:21;;;;;;;;;0.33;0.33;;;;;25.14;53.41;97764.84;5011336;27;101906;-93
2021/08/01 03:10:49;;;;;;;;;0.33;0.33;;;;;25.14;53.42;97768.44;5007203;27;103181;-93
2021/08/01 03:13:16;;;;;;;;;1.00;1.00;;;;;25.14;53.31;97773.97;5021157;27;102268;-92
2021/08/01 03:15:43;;;;;;;;;2.00;0.33;;;;;25.13;53.50;97788.94;5028105;27;103371;-93
2021/08/01 03:18:11;;;;;;;;;1.33;1.33;;;;;25.14;53.72;97787.81;5021562;27;101762;-93
2021/08/01 03:20:38;;;;;;;;;1.00;1.00;;;;;25.13;53.60;97785.34;5007301;27;103147;-93
2021/08/01 03:23:05;;;;;;;;;0.33;0.00;;;;;25.13;53.66;97790.88;5025282;27;101749;-92
2021/08/01 03:25:34;;;;;;;;;1.00;1.00;;;;;25.14;53.42;97798.06;5028394;27;103389;-93
2021/08/01 03:28:02;;;;;;;;;1.00;1.00;;;;;25.12;53.53;97801.16;5006288;27;102096;-93
2021/08/01 03:30:29;;;;;;;;;2.00;1.33;;;;;25.13;53.60;97807.47;4997925;27;110880;-93
2021/08/01 03:32:56;;;;;;;;;1.00;0.00;;;;;25.12;53.56;97814.16;4995669;27;101864;-93
2021/08/01 03:35:24;;;;;;;;;1.33;0.33;;;;;25.13;53.62;97810.25;5000840;27;103712;-93
2021/08/01 03:37:51;;;;;;;;;1.00;1.00;;;;;25.11;53.59;97802.28;5030945;27;101542;-93
2021/08/01 03:40:18;;;;;;;;;0.33;0.33;;;;;25.12;53.38;97797.56;5019408;27;102040;-92
2021/08/01 03:42:45;;;;;;;;;0.00;0.00;;;;;25.11;53.62;97812.53;5016547;27;102188;-92
2021/08/01 03:45:12;;;;;;;;;2.00;1.00;;;;;25.11;53.58;97804.22;5017209;27;103387;-93
2021/08/01 03:47:39;;;;;;;;;1.67;1.00;;;;;25.11;53.36;97799.50;5021052;27;101894;-93
2021/08/01 03:50:07;;;;;;;;;1.00;1.00;;;;;25.10;53.29;97783.22;5013394;27;102180;-92
2021/08/01 03:52:34;;;;;;;;;1.00;1.00;;;;;25.09;53.39;97776.03;5023109;27;104652;-93
2021/08/01 03:55:03;;;;;;;;;1.00;1.00;;;;;25.08;53.66;97783.50;5016374;27;103386;-93
2021/08/01 03:57:30;;;;;;;;;0.33;0.33;;;;;25.08;53.61;97779.97;5002617;27;101904;-92
2021/08/01 03:59:57;;;;;;;;;0.00;0.00;;;;;25.08;53.50;97774.44;5018473;27;102785;-92
2021/08/01 04:02:24;;;;;;;;;1.00;1.00;;;;;25.08;53.44;97761.38;4998514;27;104722;-93
2021/08/01 04:04:53;;;;;;;;;1.00;1.00;;;;;25.07;53.52;97764.50;5003278;27;103570;-92
2021/08/01 04:07:20;;;;;;;;;1.33;1.00;;;;;25.07;53.55;97758.97;5036803;27;101820;-92
2021/08/01 04:09:47;;;;;;;;;1.00;1.00;;;;;25.07;53.37;97765.31;5015476;27;101658;-93
2021/08/01 04:12:14;;;;;;;;;2.00;1.00;;;;;25.08;53.34;97764.16;5029241;27;101987;-92
2021/08/01 04:14:42;;;;;;;;;1.67;1.00;;;;;25.08;53.47;97777.19;5025254;27;108147;-93
2021/08/01 04:17:09;;;;;;;;;1.33;1.33;;;;;25.09;53.52;97784.34;5019411;27;103153;-92
2021/08/01 04:19:36;;;;;;;;;1.00;1.00;;;;;25.08;53.31;97785.50;5013509;27;102918;-93
2021/08/01 04:22:03;;;;;;;;;0.00;0.00;;;;;25.08;53.38;97777.19;5025508;27;103026;-92
2021/08/01 04:24:31;;;;;;;;;0.33;0.33;;;;;25.07;53.56;97776.38;5021263;27;103812;-93
2021/08/01 04:26:58;;;;;;;;;2.00;1.00;;;;;25.06;53.49;97758.13;5031523;27;102505;-92
2021/08/01 04:29:25;;;;;;;;;0.00;0.00;;;;;25.06;53.46;97746.25;5024982;27;102122;-93
2021/08/01 04:31:52;;;;;;;;;0.00;0.00;;;;;25.06;53.32;97740.72;5017008;27;101810;-93
2021/08/01 04:34:19;;;;;;;;;0.00;0.00;;;;;25.06;53.25;97740.72;5023553;27;103418;-93
2021/08/01 04:36:46;;;;;;;;;1.00;1.00;;;;;25.04;53.32;97745.72;5027050;27;103925;-88
2021/08/01 04:39:13;;;;;;;;;1.00;0.33;;;;;25.04;53.54;97749.31;5020735;27;102133;-93
2021/08/01 04:41:41;;;;;;;;;2.00;1.00;;;;;25.04;53.49;97759.56;5019396;27;101988;-93
2021/08/01 04:44:08;;;;;;;;;1.00;0.33;;;;;25.05;53.25;97750.13;5005138;27;103474;-93
2021/08/01 04:46:35;;;;;;;;;1.00;1.00;;;;;25.04;53.26;97754.84;5010885;27;104765;-93
2021/08/01 04:49:02;;;;;;;;;1.00;1.00;;;;;25.04;53.37;97760.38;5024825;27;101803;-93
2021/08/01 04:51:29;;;;;;;;;1.00;0.00;;;;;25.04;53.30;97765.09;5006615;27;102534;-93
2021/08/01 04:53:57;;;;;;;;;1.67;1.00;;;;;25.04;53.35;97765.09;5009702;27;103481;-93
2021/08/01 04:56:24;;;;;;;;;2.33;1.67;;;;;25.02;53.33;97757.13;5028005;27;101848;-93
2021/08/01 04:58:51;;;;;;;;;1.67;1.67;;;;;25.02;53.35;97756.31;5018367;27;101647;-92
2021/08/01 05:01:18;;;;;;;;;1.00;0.33;;;;;25.02;53.37;97746.06;5009137;27;102192;-92
2021/08/01 05:03:46;;;;;;;;;1.00;1.00;;;;;25.02;53.29;97750.78;5028340;27;103865;-91
2021/08/01 05:06:13;;;;;;;;;0.67;0.67;;;;;25.01;53.51;97749.13;5018864;27;101709;-92
2021/08/01 05:08:40;;;;;;;;;1.00;1.00;;;;;25.02;53.45;97734.19;5018195;27;102554;-93
2021/08/01 05:11:07;;;;;;;;;1.00;1.00;;;;;25.02;53.32;97734.19;5023428;27;103651;-93
2021/08/01 05:13:34;;;;;;;;;1.67;1.00;;;;;25.01;53.30;97743.59;5016506;27;103648;-93
2021/08/01 05:16:02;;;;;;;;;2.00;1.00;;;;;25.01;53.07;97749.97;5014729;27;102547;-93
2021/08/01 05:18:29;;;;;;;;;2.00;2.00;;;;;25.01;53.27;97749.97;5024758;27;101919;-92
2021/08/01 05:20:56;;;;;;;;;1.00;1.00;;;;;25.01;53.60;97744.44;5017197;27;101716;-93
2021/08/01 05:23:23;;;;;;;;;1.00;1.00;;;;;25.02;53.43;97756.31;5009009;27;103565;-92
2021/08/01 05:25:51;;;;;;;;;0.33;0.33;;;;;25.01;53.28;97761.03;5022628;27;102028;-93
2021/08/01 05:28:18;;;;;;;;;1.33;1.00;;;;;25.01;53.54;97754.66;5021993;27;105169;-88
2021/08/01 05:30:45;;;;;;;;;1.33;0.67;;;;;25.02;53.27;97753.53;5008548;27;102035;-93
2021/08/01 05:33:13;;;;;;;;;1.00;1.00;;;;;25.02;53.44;97761.84;5016258;27;111140;-93
2021/08/01 05:35:40;;;;;;;;;1.33;1.33;;;;;25.02;53.45;97776.50;5003655;27;102045;-93
2021/08/01 05:38:07;;;;;;;;;1.00;1.00;;;;;25.03;53.39;97780.09;5020326;27;102127;-93
2021/08/01 05:40:35;;;;;;;;;0.00;0.00;;;;;25.03;53.08;97780.91;5022838;27;101733;-92
2021/08/01 05:43:02;;;;;;;;;1.00;1.00;;;;;25.04;53.21;97781.69;5015412;27;103631;-93
2021/08/01 05:45:29;;;;;;;;;1.00;1.00;;;;;25.04;53.24;97788.03;5016167;27;101946;-93
2021/08/01 05:47:56;;;;;;;;;0.67;0.67;;;;;25.03;53.18;97796.69;5016477;27;101747;-92
2021/08/01 05:50:24;;;;;;;;;1.33;0.33;;;;;25.03;53.36;97791.16;5013830;27;101971;-93
2021/08/01 05:52:51;;;;;;;;;1.00;0.00;;;;;25.04;53.35;97793.59;5028937;27;103385;-92
2021/08/01 05:55:18;;;;;;;;;0.67;0.67;;;;;25.04;53.53;97790.00;5028162;27;103464;-93
2021/08/01 05:57:45;;;;;;;;;0.33;0.33;;;;;25.02;53.08;97786.75;5018096;27;102184;-93
2021/08/01 06:00:13;;;;;;;;;1.00;1.00;;;;;25.03;53.04;97791.16;5018762;27;102180;-93
2021/08/01 06:02:40;;;;;;;;;2.00;1.33;;;;;25.02;53.43;97790.34;5001090;27;104331;-91
2021/08/01 06:05:09;;;;;;;;;1.33;1.33;;;;;25.03;53.12;97791.16;5011729;27;104204;-93
2021/08/01 06:07:36;;;;;;;;;1.00;1.00;;;;;25.01;53.13;97783.16;5014023;27;101905;-92
2021/08/01 06:10:04;;;;;;;;;0.33;0.00;;;;;25.02;53.10;97781.22;5030595;27;101931;-93
2021/08/01 06:12:31;;;;;;;;;1.67;1.67;;;;;25.02;53.14;97775.69;5006977;27;103642;-92
2021/08/01 06:14:59;;;;;;;;;0.33;0.33;;;;;25.02;53.38;97790.34;5025764;27;109741;-93
2021/08/01 06:17:26;;;;;;;;;1.67;1.00;;;;;25.03;53.33;97780.09;5006611;27;101822;-92
2021/08/01 06:19:55;;;;;;;;;1.00;1.00;;;;;25.03;53.45;97771.78;5010891;27;102588;-93
2021/08/01 06:22:23;;;;;;;;;0.33;0.33;;;;;25.02;53.12;97768.19;4998760;27;103576;-92
2021/08/01 06:24:50;;;;;;;;;1.00;1.00;;;;;25.02;53.32;97764.63;5002736;27;108978;-91
2021/08/01 06:27:17;;;;;;;;;1.33;1.00;;;;;25.02;53.35;97765.44;5019112;27;101833;-93
2021/08/01 06:29:44;;;;;;;;;1.00;1.00;;;;;25.02;53.05;97767.38;5025627;27;101823;-93
2021/08/01 06:32:11;;;;;;;;;1.00;1.00;;;;;25.02;53.20;97761.84;4997675;27;103618;-92
2021/08/01 06:34:38;;;;;;;;;0.67;0.67;;;;;25.01;53.31;97755.50;5032502;27;101915;-93
2021/08/01 06:37:05;;;;;;;;;0.33;0.33;;;;;25.02;53.13;97761.84;5025348;27;101817;-92
2021/08/01 06:39:32;;;;;;;;;2.33;1.00;;;;;25.02;53.34;97770.16;5027975;27;103316;-93
2021/08/01 06:42:00;;;;;;;;;1.00;1.00;;;;;25.01;53.37;97761.03;5024466;27;103480;-93
2021/08/01 06:44:27;;;;;;;;;1.00;1.00;;;;;25.01;53.05;97761.03;5020795;27;102046;-92
2021/08/01 06:46:54;;;;;;;;;0.33;0.33;;;;;25.02;53.13;97751.59;5030737;27;102077;-92
2021/08/01 06:49:21;;;;;;;;;1.50;1.00;;;;;25.02;53.26;97745.25;5007126;27;103642;-87
2021/08/01 06:52:08;;;;;;;;;1.00;1.00;;;;;25.03;53.19;97746.88;5018852;27;103394;-93
2021/08/01 06:54:35;;;;;;;;;0.67;0.67;;;;;25.02;53.27;97740.53;5005220;27;101834;-93
2021/08/01 06:57:02;;;;;;;;;1.00;1.00;;;;;25.03;53.30;97730.28;5033899;27;101863;-92
2021/08/01 06:59:29;;;;;;;;;1.67;1.67;;;;;25.01;53.06;97727.84;5022159;27;102562;-93
2021/08/01 07:01:57;;;;;;;;;1.00;1.00;;;;;25.03;53.02;97735.81;5020295;27;103438;-93
2021/08/01 07:04:24;;;;;;;;;0.67;0.67;;;;;25.03;53.28;97730.28;5028817;27;102273;-92
2021/08/01 07:06:51;;;;;;;;;0.00;0.00;;;;;25.03;53.26;97730.28;5018024;27;102399;-93
2021/08/01 07:09:18;;;;;;;;;0.00;0.00;;;;;25.03;53.26;97727.53;5026587;27;102090;-93
2021/08/01 07:11:46;;;;;;;;;0.00;0.00;;;;;25.03;53.02;97722.81;5032319;27;103372;-93
2021/08/01 07:14:13;;;;;;;;;0.67;0.67;;;;;25.01;53.15;97715.94;5016295;27;103111;-92
2021/08/01 07:16:43;;;;;;;;;1.00;1.00;;;;;25.03;53.26;97713.69;5008962;27;102239;-93
2021/08/01 07:19:11;;;;;;;;;1.00;1.00;;;;;25.04;53.25;97729.13;5011311;27;102486;-93
2021/08/01 07:21:38;;;;;;;;;1.00;0.00;;;;;25.04;52.99;97720.84;5021651;27;103822;-93
2021/08/01 07:24:06;;;;;;;;;0.00;0.00;;;;;25.03;53.21;97714.50;5003412;27;104800;-92
2021/08/01 07:26:33;;;;;;;;;1.00;1.00;;;;;25.05;53.00;97717.75;5005612;27;102795;-93
2021/08/01 07:29:00;;;;;;;;;0.00;0.00;;;;;25.05;52.94;97700.34;5012966;27;102105;-93
2021/08/01 07:31:27;;;;;;;;;1.00;1.00;;;;;25.07;53.07;97693.38;5021558;27;110667;-93
2021/08/01 07:33:54;;;;;;;;;0.00;0.00;;;;;25.07;53.18;97687.03;5018071;27;102534;-93
2021/08/01 07:36:22;;;;;;;;;0.33;0.33;;;;;25.07;53.24;97684.25;5002719;27;102847;-93
2021/08/01 07:38:49;;;;;;;;;1.00;1.00;;;;;25.09;53.16;97687.50;5016631;27;102884;-93
2021/08/01 07:41:16;;;;;;;;;0.67;0.67;;;;;25.07;53.07;97679.56;5016743;27;103374;-93
2021/08/01 07:43:44;;;;;;;;;1.67;1.67;;;;;25.08;53.04;97680.38;5015293;27;102426;-93
2021/08/01 07:46:11;;;;;;;;;0.00;0.00;;;;;25.08;52.97;97672.06;5030002;27;102208;-93
2021/08/01 07:48:38;;;;;;;;;0.33;0.33;;;;;25.10;52.93;97661.47;5023980;27;102652;-93
2021/08/01 07:51:05;;;;;;;;;1.00;1.00;;;;;25.11;53.22;97660.34;4995595;27;103470;-92
2021/08/01 07:53:32;;;;;;;;;1.00;1.00;;;;;25.10;53.08;97658.72;5026479;27;102014;-93
2021/08/01 07:55:59;;;;;;;;;1.00;1.00;;;;;25.11;52.91;97661.19;5012888;27;102130;-93
2021/08/01 07:58:28;;;;;;;;;1.00;1.00;;;;;25.12;52.88;97653.69;5018538;27;103198;-93
2021/08/01 08:00:56;;;;;;;;;1.00;1.00;;;;;25.12;53.08;97650.94;5014085;27;103527;-93
2021/08/01 08:03:23;;;;;;;;;1.33;1.33;;;;;25.13;52.86;97641.47;5016344;27;102025;-93
2021/08/01 08:05:51;;;;;;;;;0.67;0.67;;;;;25.13;53.03;97641.47;5028977;27;102321;-93
2021/08/01 08:08:19;;;;;;;;;0.33;0.33;;;;;25.12;53.12;97642.63;5031383;27;103047;-93
2021/08/01 08:10:47;;;;;;;;;0.33;0.33;;;;;25.12;52.83;97642.63;5021991;27;103539;-93
2021/08/01 08:13:14;;;;;;;;;0.00;0.00;;;;;25.14;52.88;97648.66;5027448;27;101986;-92
2021/08/01 08:15:41;;;;;;;;;1.00;1.00;;;;;25.14;52.67;97656.94;5022106;27;101850;-93
2021/08/01 08:18:08;;;;;;;;;1.00;1.00;;;;;25.14;52.80;97648.66;5011684;27;102191;-93
2021/08/01 08:20:36;;;;;;;;;1.00;1.00;;;;;25.13;52.84;97647.00;5006164;27;103791;-93
2021/08/01 08:23:03;;;;;;;;;0.67;0.00;;;;;25.14;52.85;97646.69;5014868;27;103155;-93
2021/08/01 08:25:30;;;;;;;;;1.33;1.33;;;;;25.14;52.88;97665.25;5013156;27;103301;-93
2021/08/01 08:27:57;;;;;;;;;1.00;1.00;;;;;25.16;52.79;97668.53;5008960;27;102170;-92
2021/08/01 08:30:24;;;;;;;;;1.00;1.00;;;;;25.16;52.78;97657.47;5026249;27;104002;-93
2021/08/01 08:32:52;;;;;;;;;0.00;0.00;;;;;25.16;52.93;97654.69;5024346;27;102011;-93
2021/08/01 08:35:19;;;;;;;;;0.67;0.67;;;;;25.17;52.73;97672.94;5030000;27;102020;-93
2021/08/01 08:37:47;;;;;;;;;1.33;0.67;;;;;25.17;52.78;97670.16;5013922;27;109416;-93
2021/08/01 08:40:18;;;;;;;;;1.67;1.00;;;;;25.15;52.64;97672.41;5000955;27;103878;-93
2021/08/01 08:42:46;;;;;;;;;0.33;0.33;;;;;25.16;53.01;97676.81;5016887;27;101477;-93
2021/08/01 08:45:16;;;;;;;;;1.00;1.00;;;;;25.15;52.72;97677.94;5002952;27;102109;-93
2021/08/01 08:47:47;;;;;;;;;0.00;0.00;;;;;25.16;52.91;97708.09;5006405;27;103333;-93
2021/08/01 08:50:17;;;;;;;;;1.00;1.00;;;;;25.15;52.79;97711.16;5028200;27;103546;-93
2021/08/01 08:52:44;;;;;;;;;1.00;1.00;;;;;25.15;52.76;97723.03;5021082;27;101544;-93
2021/08/01 08:55:13;;;;;;;;;1.33;0.33;;;;;25.16;52.87;97723.84;5006357;27;104803;-93
2021/08/01 08:57:49;;;;;;;;;0.33;0.33;;;;;25.15;52.78;97722.22;5007290;27;102149;-93
2021/08/01 09:00:16;;;;;;;;;0.67;0.67;;;;;25.15;52.83;97723.03;4993917;27;103619;-91
2021/08/01 09:02:43;;;;;;;;;1.00;0.00;;;;;25.15;52.85;97733.28;4991371;27;102867;-93
2021/08/01 09:05:11;;;;;;;;;0.33;0.00;;;;;25.15;52.76;97738.81;5007020;27;101975;-93
2021/08/01 09:07:39;;;;;;;;;2.00;0.33;;;;;25.14;52.67;97728.88;4991968;27;101735;-93
2021/08/01 09:10:07;;;;;;;;;1.00;1.00;;;;;25.14;52.99;97732.47;4999030;27;103180;-93
2021/08/01 09:12:45;;;;;;;;;0.33;0.33;;;;;25.13;52.86;97736.34;4997991;27;101625;-93
2021/08/01 09:15:21;;;;;;;;;2.00;1.00;;;;;25.13;52.81;97747.44;4988310;27;102046;-93
2021/08/01 09:17:48;;;;;;;;;0.33;0.33;;;;;25.13;52.68;97741.91;4979806;27;102036;-93
2021/08/01 09:20:19;;;;;;;;;1.00;1.00;;;;;25.13;52.72;97730.00;4997131;27;103394;-93
2021/08/01 09:23:01;;;;;;;;;0.67;0.67;;;;;25.13;52.76;97721.69;4990508;27;101872;-93
2021/08/01 09:25:30;;;;;;;;;0.33;0.33;;;;;25.11;52.96;97719.28;4976121;27;103037;-93
2021/08/01 09:28:13;;;;;;;;;1.00;1.00;;;;;25.10;52.94;97703.81;5000274;27;101763;-93
2021/08/01 09:30:51;;;;;;;;;0.00;0.00;;;;;25.10;52.74;97691.91;4935524;27;108046;-93
2021/08/01 09:33:35;;;;;;;;;1.00;1.00;;;;;25.08;52.81;97681.16;4968528;27;103062;-93
2021/08/01 09:36:15;;;;;;;;;1.33;1.33;;;;;25.07;52.82;97645.53;4989498;27;102521;-93
2021/08/01 09:38:55;;;;;;;;;1.67;1.00;;;;;25.07;52.93;97598.50;5001913;27;101979;-93
2021/08/01 09:41:35;;;;;;;;;1.00;1.00;;;;;25.07;53.07;97568.06;4996776;27;103672;-93
2021/08/01 09:44:05;;;;;;;;;1.00;1.00;;;;;25.08;53.02;97566.94;4985333;27;103024;-93
2021/08/01 09:46:43;;;;;;;;;1.33;0.33;;;;;25.09;52.71;97563.03;5008523;27;101716;-93
2021/08/01 09:49:20;;;;;;;;;0.33;0.33;;;;;25.09;52.91;97554.72;4994670;27;103480;-93
2021/08/01 09:51:54;;;;;;;;;1.00;1.00;;;;;25.09;52.88;97532.59;4998689;28;103638;-93
2021/08/01 09:54:23;;;;;;;;;0.00;0.00;;;;;25.10;52.83;97503.78;5005655;28;102186;-93
2021/08/01 09:56:55;;;;;;;;;0.00;0.00;;;;;25.10;52.50;97473.38;4992945;27;101998;-92
2021/08/01 09:59:27;;;;;;;;;0.33;0.33;;;;;25.14;52.68;97471.56;4987786;27;102187;-93
2021/08/01 10:01:57;;;;;;;;;0.00;0.00;;;;;25.15;52.74;97481.50;4978473;28;103391;-93
2021/08/01 10:04:37;;;;;;;;;0.00;0.00;;;;;25.16;52.51;97475.66;4993597;27;102297;-93
2021/08/01 10:07:09;;;;;;;;;0.33;0.33;;;;;25.15;52.55;97468.50;4938942;27;105646;-93
2021/08/01 10:09:45;;;;;;;;;1.00;1.00;;;;;25.17;52.37;97470.97;5008179;27;102440;-93
2021/08/01 10:12:12;;;;;;;;;0.33;0.33;;;;;25.16;52.52;97463.78;4996996;27;103633;-93
2021/08/01 10:14:40;;;;;;;;;1.00;1.00;;;;;25.16;52.47;97469.31;4987208;27;105142;-92
2021/08/01 10:17:07;;;;;;;;;1.00;1.00;;;;;25.18;52.32;97472.56;4996673;27;102089;-93
2021/08/01 10:19:34;;;;;;;;;1.00;1.00;;;;;25.21;52.24;97471.94;4998266;27;103313;-93
2021/08/01 10:22:04;;;;;;;;;1.00;1.00;;;;;25.20;52.26;97481.38;4995884;27;103159;-92
2021/08/01 10:24:34;;;;;;;;;0.33;0.33;;;;;25.22;52.34;97490.16;5011552;27;109463;-93
2021/08/01 10:27:06;;;;;;;;;1.00;1.00;;;;;25.25;52.26;97492.28;4983607;28;102272;-87
2021/08/01 10:29:46;;;;;;;;;1.00;1.00;;;;;25.25;52.46;97500.59;4990139;27;103064;-93
2021/08/01 10:32:16;;;;;;;;;0.00;0.00;;;;;25.25;52.33;97508.88;4993534;27;103246;-93
2021/08/01 10:35:06;;;;;;;;;1.00;1.00;;;;;25.26;52.28;97518.81;4992429;27;101883;-92
2021/08/01 10:37:39;;;;;;;;;1.67;1.00;;;;;25.25;52.23;97526.31;4986018;27;102463;-93
2021/08/01 10:40:07;;;;;;;;;2.67;2.00;;;;;25.27;52.39;97532.31;4994995;28;102131;-92
2021/08/01 10:42:37;;;;;;;;;1.00;1.00;;;;;25.27;52.40;97532.31;5008122;27;103422;-93
2021/08/01 10:45:05;;;;;;;;;0.00;0.00;;;;;25.26;52.43;97530.69;4991534;27;101824;-93
2021/08/01 10:47:34;;;;;;;;;1.00;1.00;;;;;25.27;52.65;97528.72;4994907;27;102590;-93
2021/08/01 10:50:02;;;;;;;;;0.00;0.00;;;;;25.27;52.43;97553.63;4995451;28;104453;-91
2021/08/01 10:52:34;;;;;;;;;0.33;0.33;;;;;25.24;52.54;97565.34;4998535;27;107953;-93
2021/08/01 10:55:03;;;;;;;;;0.67;0.67;;;;;25.27;52.35;97570.25;4998354;27;104161;-89
2021/08/01 10:57:31;;;;;;;;;2.00;2.00;;;;;25.26;52.54;97563.88;4997249;27;101790;-93
2021/08/01 11:00:06;;;;;;;;;0.33;0.33;;;;;25.28;52.28;97582.94;4992878;28;101731;-93
2021/08/01 11:02:34;;;;;;;;;0.33;0.33;;;;;25.27;52.52;97573.81;4987727;27;108371;-93
2021/08/01 11:05:39;;;;;;;;;0.00;0.00;;;;;25.27;52.48;97537.84;5001604;27;102059;-91
2021/08/01 11:08:07;;;;;;;;;2.00;1.00;;;;;25.26;52.52;97563.09;4930823;28;102762;-93
2021/08/01 11:10:34;;;;;;;;;1.33;1.33;;;;;25.25;52.62;97597.44;4986332;27;102937;-92
2021/08/01 11:13:29;;;;;;;;;0.33;0.33;;;;;25.26;52.41;97610.13;5002209;27;103768;-93
2021/08/01 11:15:56;;;;;;;;;1.00;1.00;;;;;25.27;52.48;97611.75;4933544;28;102198;-93
2021/08/01 11:18:30;;;;;;;;;0.33;0.33;;;;;25.29;52.28;97595.66;4986620;27;101702;-93
2021/08/01 11:20:59;;;;;;;;;1.67;1.00;;;;;25.28;52.37;97582.94;4993590;27;101762;-93
2021/08/01 11:23:45;;;;;;;;;0.00;0.00;;;;;25.27;52.41;97575.78;4999068;27;103450;-93
2021/08/01 11:26:17;;;;;;;;;1.00;1.00;;;;;25.27;52.15;97570.25;4937519;27;104564;-93
2021/08/01 11:28:45;;;;;;;;;1.00;1.00;;;;;25.26;52.53;97546.50;5001717;27;102079;-93
2021/08/01 11:31:19;;;;;;;;;1.00;1.00;;;;;25.26;52.49;97508.53;5005199;27;109524;-93
2021/08/01 11:33:48;;;;;;;;;1.00;1.00;;;;;25.26;52.39;97485.63;4998231;28;103697;-93
2021/08/01 11:36:18;;;;;;;;;1.00;1.00;;;;;25.28;52.27;97491.63;4966363;28;101974;-93